Time;durP1;ratioP1;P1;durP2;ratioP2;P2;SDS_P1;SDS_P2;PMS_P1;PMS_P2;Temp;Humidity;BMP_temperature;BMP_pressure;BME280_temperature;BME280_humidity;BME280_pressure;Samples;Min_cycle;Max_cycle;Signal;HPM_P1;HPM_P2
2021/10/15 00:00:40;;;;;;;3.10;2.03;;;14.60;99.90;;;;;;6241886;22;20526;-90
2021/10/15 00:03:05;;;;;;;6.50;2.37;;;14.60;99.90;;;;;;6216064;22;20201;-85
2021/10/15 00:05:31;;;;;;;2.03;1.73;;;14.60;99.90;;;;;;6242949;22;20164;-90
2021/10/15 00:07:58;;;;;;;8.13;2.20;;;14.60;99.90;;;;;;6267976;22;20211;-88
2021/10/15 00:10:23;;;;;;;10.53;1.30;;;14.60;99.90;;;;;;6241879;22;20647;-92
2021/10/15 00:12:50;;;;;;;18.33;2.17;;;14.60;99.90;;;;;;6216347;22;20193;-91
2021/10/15 00:15:16;;;;;;;6.00;1.53;;;14.50;99.90;;;;;;6241151;22;20161;-87
2021/10/15 00:17:41;;;;;;;2.23;1.90;;;14.50;99.90;;;;;;6242394;22;20255;-91
2021/10/15 00:20:08;;;;;;;5.93;2.20;;;14.50;99.90;;;;;;6242020;22;20255;-90
2021/10/15 00:22:34;;;;;;;3.87;1.70;;;14.50;99.90;;;;;;6242322;22;20200;-89
2021/10/15 00:25:03;;;;;;;6.60;1.17;;;14.50;99.90;;;;;;6241840;22;20192;-90
2021/10/15 00:27:29;;;;;;;2.93;1.37;;;14.50;99.90;;;;;;6216704;22;20200;-90
2021/10/15 00:29:54;;;;;;;4.67;1.77;;;14.50;99.90;;;;;;6217180;22;20491;-88
2021/10/15 00:32:20;;;;;;;1.67;1.40;;;14.50;99.90;;;;;;6241073;22;20189;-89
2021/10/15 00:34:46;;;;;;;10.37;2.30;;;14.50;99.90;;;;;;6267927;22;20951;-90
2021/10/15 00:37:12;;;;;;;5.40;1.57;;;14.50;99.90;;;;;;6267850;22;20219;-90
2021/10/15 00:39:38;;;;;;;5.03;2.07;;;14.60;99.90;;;;;;6216845;22;20646;-89
2021/10/15 00:42:04;;;;;;;8.20;2.57;;;14.60;99.90;;;;;;6268165;22;20440;-89
2021/10/15 00:44:29;;;;;;;4.47;2.07;;;14.60;99.90;;;;;;6215600;22;20200;-90
2021/10/15 00:46:55;;;;;;;3.43;1.77;;;14.60;99.90;;;;;;6215882;22;20635;-88
2021/10/15 00:49:21;;;;;;;3.90;1.87;;;14.60;99.90;;;;;;6215983;22;20220;-89
2021/10/15 00:54:32;;;;;;;1.97;1.30;;;14.60;99.90;;;;;;6224010;22;20204;-90
2021/10/15 00:56:58;;;;;;;3.03;1.10;;;14.60;99.90;;;;;;6191957;22;20195;-88
2021/10/15 00:59:24;;;;;;;5.70;2.07;;;14.60;99.90;;;;;;6215652;22;20750;-88
2021/10/15 01:01:50;;;;;;;12.97;1.63;;;14.60;99.90;;;;;;6190844;22;20206;-91
2021/10/15 01:04:15;;;;;;;3.53;1.53;;;14.60;99.90;;;;;;6266389;22;20265;-88
2021/10/15 01:06:41;;;;;;;8.97;2.30;;;14.60;99.90;;;;;;6240475;22;20222;-87
2021/10/15 01:09:07;;;;;;;4.87;2.40;;;14.60;99.90;;;;;;6240711;22;20157;-90
2021/10/15 01:11:33;;;;;;;3.73;2.07;;;14.60;99.90;;;;;;6241018;22;20161;-91
2021/10/15 01:13:59;;;;;;;4.50;2.03;;;14.60;99.90;;;;;;6240786;22;20192;-91
2021/10/15 01:16:28;;;;;;;2.00;1.80;;;14.60;99.90;;;;;;6267195;22;20212;-89
2021/10/15 01:18:57;;;;;;;1.83;1.50;;;14.60;99.90;;;;;;6267224;22;20220;-89
2021/10/15 01:21:23;;;;;;;4.53;2.73;;;14.60;99.90;;;;;;6240469;22;20153;-89
2021/10/15 01:23:49;;;;;;;9.20;1.77;;;14.60;99.90;;;;;;6215797;22;20172;-89
2021/10/15 01:26:15;;;;;;;6.50;2.20;;;14.60;99.90;;;;;;6213777;22;20235;-88
2021/10/15 01:28:59;;;;;;;5.23;2.77;;;14.60;99.90;;;;;;6214057;22;20201;-86
2021/10/15 01:31:27;;;;;;;8.27;2.63;;;14.60;99.90;;;;;;6240060;22;20208;-86
2021/10/15 01:33:57;;;;;;;10.53;2.50;;;14.60;99.90;;;;;;6213977;22;20203;-89
2021/10/15 01:36:23;;;;;;;3.67;2.50;;;14.60;99.90;;;;;;6265959;22;20184;-87
2021/10/15 01:38:49;;;;;;;8.50;2.37;;;14.60;99.90;;;;;;6267169;22;20157;-90
2021/10/15 01:41:15;;;;;;;8.33;2.53;;;14.60;99.90;;;;;;6240940;22;20261;-90
2021/10/15 01:43:41;;;;;;;12.00;3.00;;;14.60;99.90;;;;;;6215055;22;20196;-89
2021/10/15 01:46:06;;;;;;;5.77;2.67;;;14.60;99.90;;;;;;6240250;22;20188;-88
2021/10/15 01:48:32;;;;;;;3.63;2.80;;;14.60;99.90;;;;;;6240117;22;20196;-88
2021/10/15 01:50:58;;;;;;;1.87;1.47;;;14.60;99.90;;;;;;6190163;22;20183;-86
2021/10/15 01:53:24;;;;;;;6.23;2.40;;;14.60;99.90;;;;;;6240093;22;20184;-86
2021/10/15 01:55:50;;;;;;;3.40;3.10;;;14.60;99.90;;;;;;6266629;22;20254;-88
2021/10/15 01:58:19;;;;;;;10.33;2.80;;;14.60;99.90;;;;;;6215284;22;20210;-89
2021/10/15 02:00:46;;;;;;;4.77;1.97;;;14.60;99.90;;;;;;6239182;22;20246;-88
2021/10/15 02:03:11;;;;;;;5.63;2.57;;;14.60;99.90;;;;;;6263040;22;20224;-89
2021/10/15 02:05:37;;;;;;;6.63;2.70;;;14.60;99.90;;;;;;6212343;22;20320;-91
2021/10/15 02:08:03;;;;;;;8.80;3.03;;;14.60;99.90;;;;;;6185995;22;20192;-85
2021/10/15 02:10:29;;;;;;;2.10;1.90;;;14.60;99.90;;;;;;6236161;22;20194;-88
2021/10/15 02:12:55;;;;;;;4.73;1.97;;;14.60;99.90;;;;;;6210709;22;20276;-85
2021/10/15 02:15:22;;;;;;;5.87;2.97;;;14.60;99.90;;;;;;6236112;22;20161;-89
2021/10/15 02:17:48;;;;;;;3.83;3.00;;;14.60;99.90;;;;;;6213981;22;20161;-87
2021/10/15 02:20:16;;;;;;;7.27;2.80;;;14.70;99.90;;;;;;6266150;22;20192;-89
2021/10/15 02:22:44;;;;;;;8.17;2.23;;;14.70;99.90;;;;;;6237179;22;20189;-90
2021/10/15 02:25:11;;;;;;;4.73;2.80;;;14.70;99.90;;;;;;6236076;22;20621;-90
2021/10/15 02:27:38;;;;;;;1.70;1.60;;;14.70;99.90;;;;;;6235438;22;20207;-89
2021/10/15 02:30:07;;;;;;;2.47;2.13;;;14.70;99.90;;;;;;6263461;22;20651;-87
2021/10/15 02:32:32;;;;;;;2.97;1.67;;;14.70;99.90;;;;;;6265921;22;20181;-89
2021/10/15 02:34:59;;;;;;;9.13;1.93;;;14.70;99.90;;;;;;6214039;22;20204;-89
2021/10/15 02:37:24;;;;;;;2.13;1.73;;;14.70;99.90;;;;;;6265297;22;20208;-86
2021/10/15 02:39:50;;;;;;;7.30;2.37;;;14.70;99.90;;;;;;6263286;22;20250;-90
2021/10/15 02:42:16;;;;;;;3.00;2.70;;;14.70;99.90;;;;;;6237281;22;20195;-90
2021/10/15 02:44:43;;;;;;;1.67;1.23;;;14.70;99.90;;;;;;6239146;22;20161;-88
2021/10/15 02:47:09;;;;;;;6.20;2.37;;;14.70;99.90;;;;;;6240418;22;20192;-89
2021/10/15 02:49:34;;;;;;;9.33;2.50;;;14.70;99.90;;;;;;6215334;22;20952;-90
2021/10/15 02:52:00;;;;;;;3.10;1.90;;;14.70;99.90;;;;;;6216284;22;20188;-90
2021/10/15 02:54:26;;;;;;;2.80;1.90;;;14.60;99.90;;;;;;6241071;22;20627;-89
2021/10/15 02:56:51;;;;;;;6.60;2.80;;;14.60;99.90;;;;;;6242051;22;20195;-88
2021/10/15 02:59:17;;;;;;;9.17;2.77;;;14.60;99.90;;;;;;6216314;22;20196;-89
2021/10/15 03:01:43;;;;;;;3.93;1.77;;;14.60;99.90;;;;;;6268279;22;20203;-86
2021/10/15 03:04:09;;;;;;;4.43;1.87;;;14.60;99.90;;;;;;6268869;22;20223;-87
2021/10/15 03:06:35;;;;;;;2.37;1.97;;;14.60;99.90;;;;;;6240978;22;20258;-86
2021/10/15 03:09:02;;;;;;;8.97;3.03;;;14.60;99.90;;;;;;6240533;22;20164;-85
2021/10/15 03:11:28;;;;;;;7.00;2.20;;;14.60;99.90;;;;;;6267403;22;20203;-91
2021/10/15 03:13:53;;;;;;;2.40;1.87;;;14.50;99.90;;;;;;6215116;22;20192;-90
2021/10/15 03:16:19;;;;;;;6.63;1.97;;;14.50;99.90;;;;;;6268170;22;20213;-89
2021/10/15 03:18:45;;;;;;;3.03;1.53;;;14.50;99.90;;;;;;6242354;22;20200;-89
2021/10/15 03:21:11;;;;;;;9.17;2.93;;;14.40;99.90;;;;;;6267992;22;20161;-86
2021/10/15 03:23:36;;;;;;;4.10;2.03;;;14.40;99.90;;;;;;6216733;22;20168;-89
2021/10/15 03:26:02;;;;;;;4.97;1.43;;;14.40;99.90;;;;;;6241309;22;20296;-88
2021/10/15 03:28:28;;;;;;;8.00;2.43;;;14.20;99.90;;;;;;6267777;22;20199;-90
2021/10/15 03:30:54;;;;;;;12.80;2.30;;;14.10;99.90;;;;;;6215726;22;20926;-89
2021/10/15 03:33:20;;;;;;;2.87;2.37;;;14.00;99.90;;;;;;6240901;22;20165;-87
2021/10/15 03:35:46;;;;;;;3.13;1.33;;;13.90;99.90;;;;;;6241303;22;20189;-88
2021/10/15 03:38:11;;;;;;;3.97;1.73;;;13.80;99.90;;;;;;6215792;22;20266;-92
2021/10/15 03:40:37;;;;;;;5.03;0.80;;;13.70;99.90;;;;;;6240588;22;20642;-90
2021/10/15 03:43:03;;;;;;;6.40;2.73;;;13.70;99.90;;;;;;6215275;22;20192;-88
2021/10/15 03:45:29;;;;;;;5.30;1.10;;;13.60;99.90;;;;;;6241567;22;20262;-88
2021/10/15 03:47:55;;;;;;;7.77;2.23;;;13.60;99.90;;;;;;6242868;22;20602;-91
2021/10/15 03:50:20;;;;;;;3.97;3.40;;;13.60;99.90;;;;;;6216817;22;20189;-91
2021/10/15 03:52:46;;;;;;;0.43;0.43;;;13.60;99.90;;;;;;6240881;22;20204;-89
2021/10/15 03:55:13;;;;;;;1.57;1.43;;;13.60;99.90;;;;;;6266775;22;20203;-90
2021/10/15 03:57:40;;;;;;;4.10;1.50;;;13.60;99.90;;;;;;6215392;22;20694;-89
2021/10/15 04:00:08;;;;;;;1.27;0.93;;;13.60;99.90;;;;;;6268363;22;20160;-88
2021/10/15 04:02:42;;;;;;;1.83;0.60;;;13.60;99.90;;;;;;6267435;22;20204;-88
2021/10/15 04:05:09;;;;;;;2.07;1.13;;;13.60;99.90;;;;;;6239906;22;20651;-88
2021/10/15 04:07:35;;;;;;;4.57;2.07;;;13.60;99.90;;;;;;6240704;22;20216;-92
2021/10/15 04:10:01;;;;;;;0.60;0.60;;;13.60;99.90;;;;;;6214854;22;20198;-89
2021/10/15 04:12:27;;;;;;;4.43;2.37;;;13.50;99.90;;;;;;6266261;22;20254;-88
2021/10/15 04:14:52;;;;;;;0.03;0.03;;;12.70;99.90;;;;;;6214787;22;20596;-85
2021/10/15 04:17:18;;;;;;;0.37;0.30;;;12.50;99.90;;;;;;6238799;22;20215;-88
2021/10/15 04:19:44;;;;;;;0.17;0.10;;;12.50;99.90;;;;;;6239661;22;20631;-90
2021/10/15 04:22:10;;;;;;;0.30;0.20;;;12.00;99.90;;;;;;6238866;22;20687;-87
2021/10/15 04:24:39;;;;;;;0.77;0.30;;;11.90;99.90;;;;;;6214385;22;20744;-88
2021/10/15 04:27:06;;;;;;;0.87;0.20;;;12.00;99.90;;;;;;6240205;22;20168;-88
2021/10/15 04:29:34;;;;;;;2.63;0.40;;;11.90;99.90;;;;;;6265952;22;20185;-88
2021/10/15 04:32:00;;;;;;;10.00;1.20;;;11.80;99.90;;;;;;6264930;22;20192;-88
2021/10/15 04:34:26;;;;;;;0.63;0.50;;;11.70;99.90;;;;;;6213233;22;20207;-88
2021/10/15 04:36:52;;;;;;;0.23;0.10;;;11.70;99.90;;;;;;6238476;22;20273;-90
2021/10/15 04:39:18;;;;;;;0.97;0.17;;;11.40;99.90;;;;;;6239227;22;20161;-92
2021/10/15 04:41:44;;;;;;;0.00;0.00;;;11.20;99.90;;;;;;6215655;22;20164;-89
2021/10/15 04:44:10;;;;;;;0.10;0.10;;;11.20;99.90;;;;;;6239200;22;20192;-92
2021/10/15 04:46:35;;;;;;;0.00;0.00;;;11.20;99.90;;;;;;6239177;22;20343;-87
2021/10/15 04:49:01;;;;;;;1.03;0.20;;;11.30;99.90;;;;;;6239833;22;20208;-89
2021/10/15 04:51:27;;;;;;;0.13;0.13;;;11.40;99.90;;;;;;6214162;22;20199;-89
2021/10/15 04:53:53;;;;;;;0.13;0.10;;;11.40;99.90;;;;;;6240931;22;20251;-86
2021/10/15 04:56:19;;;;;;;0.07;0.07;;;11.40;99.90;;;;;;6238926;22;20650;-89
2021/10/15 04:58:44;;;;;;;2.17;0.57;;;11.50;99.90;;;;;;6239507;22;20196;-87
2021/10/15 05:01:10;;;;;;;0.57;0.57;;;11.50;99.90;;;;;;6213740;22;20246;-90
2021/10/15 05:03:36;;;;;;;0.37;0.37;;;11.40;99.90;;;;;;6238127;22;20208;-90
2021/10/15 05:06:02;;;;;;;0.10;0.10;;;11.40;99.90;;;;;;6239671;22;20167;-90
2021/10/15 05:08:32;;;;;;;0.57;0.40;;;11.40;99.90;;;;;;6213177;22;20193;-91
2021/10/15 05:10:58;;;;;;;0.00;0.00;;;11.40;99.90;;;;;;6190412;22;20219;-90
2021/10/15 05:13:43;;;;;;;4.80;0.20;;;11.40;99.90;;;;;;6213381;22;20957;-88
2021/10/15 05:16:09;;;;;;;0.30;0.30;;;11.40;99.90;;;;;;6261858;22;20208;-91
2021/10/15 05:18:36;;;;;;;0.80;0.20;;;11.50;99.90;;;;;;6188767;22;20551;-90
2021/10/15 05:21:01;;;;;;;0.10;0.10;;;11.50;99.90;;;;;;6239801;22;20242;-89
2021/10/15 05:23:27;;;;;;;0.20;0.20;;;11.60;99.90;;;;;;6241328;22;20200;-94
2021/10/15 05:25:53;;;;;;;4.07;0.60;;;11.60;99.90;;;;;;6243145;22;20252;-93
2021/10/15 05:28:19;;;;;;;1.60;0.50;;;11.60;99.90;;;;;;6243009;22;20191;-95
2021/10/15 05:30:44;;;;;;;0.23;0.23;;;11.60;99.90;;;;;;6216868;22;20207;-93
2021/10/15 05:33:10;;;;;;;1.43;0.50;;;11.60;99.90;;;;;;6191069;22;20177;-88
2021/10/15 05:35:38;;;;;;;0.20;0.20;;;11.60;99.90;;;;;;6215262;22;20302;-90
2021/10/15 05:38:03;;;;;;;1.03;0.60;;;11.60;99.90;;;;;;6238355;22;20193;-90
2021/10/15 05:40:29;;;;;;;0.43;0.43;;;11.60;99.90;;;;;;6240992;22;20215;-96
2021/10/15 05:42:55;;;;;;;2.20;0.83;;;11.60;99.90;;;;;;6264866;22;20515;-89
2021/10/15 05:45:20;;;;;;;0.83;0.83;;;11.60;99.90;;;;;;6239271;22;20599;-93
2021/10/15 05:47:46;;;;;;;5.37;0.63;;;11.60;99.90;;;;;;6213442;22;20168;-91
2021/10/15 05:50:13;;;;;;;2.43;0.20;;;11.60;99.90;;;;;;6239331;22;20200;-92
2021/10/15 05:52:41;;;;;;;0.50;0.20;;;11.60;99.90;;;;;;6267185;22;20216;-93
2021/10/15 05:55:26;;;;;;;0.17;0.17;;;11.60;99.90;;;;;;6264627;22;20561;-91
2021/10/15 06:00:28;;;;;;;0.00;0.00;;;11.50;99.90;;;;;;6216811;22;20153;-90
2021/10/15 06:02:54;;;;;;;0.13;0.13;;;11.50;99.90;;;;;;6240822;22;20247;-95
2021/10/15 06:16:06;;;;;;;0.00;0.00;;;11.30;99.90;;;;;;6245156;22;20263;-89
2021/10/15 06:18:38;;;;;;;0.40;0.40;;;11.30;99.90;;;;;;6216484;22;20189;-89
2021/10/15 06:21:04;;;;;;;5.83;0.53;;;11.40;99.90;;;;;;6242897;22;20160;-90
2021/10/15 06:23:30;;;;;;;1.80;0.70;;;11.40;99.90;;;;;;6268861;22;20196;-93
2021/10/15 06:25:57;;;;;;;8.10;0.20;;;11.40;99.90;;;;;;6241359;22;20254;-90
2021/10/15 06:28:23;;;;;;;0.27;0.27;;;11.40;99.90;;;;;;6214303;22;20201;-96
2021/10/15 06:30:49;;;;;;;0.03;0.03;;;11.50;99.90;;;;;;6241968;22;20268;-91
2021/10/15 06:33:15;;;;;;;0.10;0.10;;;11.40;99.90;;;;;;6214154;22;20157;-92
2021/10/15 06:35:41;;;;;;;3.40;0.50;;;11.40;99.90;;;;;;6239644;22;20681;-92
2021/10/15 06:38:07;;;;;;;0.60;0.60;;;11.40;99.90;;;;;;6216070;22;20192;-88
2021/10/15 06:40:36;;;;;;;5.30;0.30;;;11.40;99.90;;;;;;6266679;22;20203;-89
2021/10/15 06:43:02;;;;;;;5.13;2.73;;;11.40;99.90;;;;;;6213635;22;20271;-91
2021/10/15 06:45:28;;;;;;;0.40;0.30;;;11.40;99.90;;;;;;6269550;22;20624;-91
2021/10/15 06:47:54;;;;;;;0.10;0.10;;;11.50;99.90;;;;;;6218327;22;20164;-94
2021/10/15 06:50:20;;;;;;;1.77;1.30;;;11.50;99.90;;;;;;6195584;22;21016;-89
2021/10/15 06:52:49;;;;;;;2.40;0.20;;;11.50;99.90;;;;;;6212961;22;20192;-89
2021/10/15 06:55:16;;;;;;;0.93;0.77;;;11.50;99.90;;;;;;6213115;22;20254;-88
2021/10/15 06:57:42;;;;;;;9.43;0.60;;;11.50;99.90;;;;;;6264569;22;20895;-92
2021/10/15 07:00:09;;;;;;;1.93;0.27;;;11.60;99.90;;;;;;6265428;22;20165;-89
2021/10/15 07:02:35;;;;;;;0.50;0.47;;;11.60;99.90;;;;;;6239939;22;20287;-89
2021/10/15 07:05:01;;;;;;;0.30;0.30;;;11.50;99.90;;;;;;6270199;22;20216;-91
2021/10/15 07:07:27;;;;;;;2.27;0.67;;;11.60;99.90;;;;;;6246345;22;20285;-89
2021/10/15 07:09:52;;;;;;;0.60;0.30;;;12.00;99.90;;;;;;6227058;22;20302;-95
2021/10/15 07:12:18;;;;;;;0.43;0.43;;;12.40;99.90;;;;;;6268218;22;20639;-87
2021/10/15 07:14:44;;;;;;;5.13;0.40;;;12.40;99.90;;;;;;6221741;22;20169;-94
2021/10/15 07:17:10;;;;;;;1.90;0.20;;;12.20;99.90;;;;;;6217782;22;20643;-91
2021/10/15 07:19:38;;;;;;;0.40;0.40;;;12.10;99.90;;;;;;6242456;22;20298;-91
2021/10/15 07:22:07;;;;;;;0.30;0.30;;;12.10;99.90;;;;;;6273156;22;20203;-92
2021/10/15 07:24:33;;;;;;;0.40;0.27;;;12.20;99.90;;;;;;6255552;22;20197;-95
2021/10/15 07:27:01;;;;;;;5.13;0.30;;;12.40;99.90;;;;;;6231760;22;20652;-89
2021/10/15 07:29:29;;;;;;;3.80;0.50;;;12.30;99.90;;;;;;6254432;22;20204;-87
2021/10/15 07:31:55;;;;;;;0.00;0.00;;;12.80;99.90;;;;;;6249244;22;20200;-91
2021/10/15 07:34:21;;;;;;;3.90;0.50;;;13.50;99.90;;;;;;6274044;22;20287;-91
2021/10/15 07:36:47;;;;;;;4.90;0.60;;;14.00;99.90;;;;;;6240468;22;20224;-92
2021/10/15 07:39:13;;;;;;;2.47;0.83;;;14.10;99.90;;;;;;6241023;22;20168;-93
2021/10/15 07:41:43;;;;;;;5.87;0.87;;;14.30;99.90;;;;;;6218110;22;20160;-93
2021/10/15 07:44:10;;;;;;;0.73;0.63;;;14.60;99.90;;;;;;6244312;22;20200;-93
2021/10/15 07:46:36;;;;;;;0.63;0.30;;;15.00;99.90;;;;;;6241892;22;20603;-93
2021/10/15 07:49:02;;;;;;;3.47;0.40;;;14.50;99.90;;;;;;6242160;22;20203;-95
2021/10/15 07:51:28;;;;;;;0.20;0.10;;;14.30;99.90;;;;;;6191656;22;20200;-92
2021/10/15 07:53:54;;;;;;;1.33;0.30;;;14.40;99.90;;;;;;6242220;22;20233;-94
2021/10/15 07:56:20;;;;;;;0.40;0.40;;;14.70;99.90;;;;;;6267935;22;20319;-92
2021/10/15 07:58:46;;;;;;;0.43;0.43;;;14.20;99.90;;;;;;6244020;22;20197;-91
2021/10/15 08:01:11;;;;;;;1.40;0.20;;;13.50;99.90;;;;;;6216928;22;20677;-91
2021/10/15 08:03:37;;;;;;;7.67;0.30;;;12.90;99.90;;;;;;6190816;22;20288;-93
2021/10/15 08:06:03;;;;;;;1.10;0.90;;;13.10;99.90;;;;;;6216689;22;20226;-92
2021/10/15 08:08:29;;;;;;;0.50;0.50;;;12.80;99.90;;;;;;6216496;22;20279;-94
2021/10/15 08:10:54;;;;;;;3.13;1.13;;;13.00;99.90;;;;;;6192850;22;20203;-91
2021/10/15 08:13:20;;;;;;;0.20;0.20;;;13.70;99.90;;;;;;6241980;22;20195;-91
2021/10/15 08:15:46;;;;;;;3.83;1.07;;;14.00;99.90;;;;;;6241269;22;20293;-92
2021/10/15 08:18:12;;;;;;;0.47;0.47;;;14.10;99.90;;;;;;6241764;22;20583;-91
2021/10/15 08:20:38;;;;;;;3.27;0.77;;;14.20;99.90;;;;;;6194459;22;20173;-90
2021/10/15 08:23:03;;;;;;;1.40;0.77;;;14.20;99.90;;;;;;6193100;22;20207;-93
2021/10/15 08:25:30;;;;;;;5.77;0.63;;;14.40;99.90;;;;;;6193658;22;20192;-90
2021/10/15 08:27:58;;;;;;;4.97;0.73;;;14.50;99.90;;;;;;6218228;22;20207;-95
2021/10/15 08:30:27;;;;;;;7.10;0.60;;;14.40;99.90;;;;;;6270165;22;20243;-93
2021/10/15 08:32:53;;;;;;;1.20;0.47;;;13.80;99.90;;;;;;6270022;22;20149;-90
2021/10/15 08:35:21;;;;;;;0.83;0.40;;;13.30;99.90;;;;;;6241785;22;20652;-94
2021/10/15 08:37:48;;;;;;;5.73;0.83;;;13.20;99.90;;;;;;6268885;22;20216;-88
2021/10/15 08:40:13;;;;;;;2.10;1.13;;;13.10;99.90;;;;;;6283714;22;20200;-92
2021/10/15 08:42:50;;;;;;;7.80;0.80;;;13.20;99.90;;;;;;6245292;22;20203;-95
2021/10/15 08:45:16;;;;;;;1.73;0.23;;;13.20;99.90;;;;;;6241596;22;20144;-89
2021/10/15 08:47:42;;;;;;;3.93;0.93;;;13.10;99.90;;;;;;6242292;22;20271;-91
2021/10/15 08:50:08;;;;;;;4.00;1.40;;;13.10;99.90;;;;;;6240495;22;20643;-92
2021/10/15 08:52:34;;;;;;;2.47;1.03;;;13.10;99.90;;;;;;6238984;22;20647;-92
2021/10/15 08:54:59;;;;;;;4.17;2.20;;;13.20;99.90;;;;;;6243845;22;20192;-91
2021/10/15 08:57:25;;;;;;;2.83;0.90;;;13.50;99.90;;;;;;6272827;22;20186;-92
2021/10/15 08:59:51;;;;;;;0.27;0.27;;;13.80;99.90;;;;;;6218084;22;20157;-93
2021/10/15 09:02:19;;;;;;;4.20;1.03;;;14.00;99.90;;;;;;6216714;22;20601;-91
2021/10/15 09:04:48;;;;;;;1.50;0.63;;;13.90;99.90;;;;;;6240704;22;20204;-94
2021/10/15 09:07:15;;;;;;;1.57;0.70;;;13.40;99.90;;;;;;6267358;22;20276;-93
2021/10/15 09:09:42;;;;;;;1.57;1.00;;;13.00;99.90;;;;;;6242063;22;20632;-96
2021/10/15 09:12:15;;;;;;;0.47;0.43;;;12.70;99.90;;;;;;6241558;22;20957;-90
2021/10/15 09:14:42;;;;;;;1.07;0.97;;;12.50;99.90;;;;;;6268993;22;20156;-89
2021/10/15 09:17:21;;;;;;;1.13;0.50;;;12.70;99.90;;;;;;6215423;22;20846;-91
2021/10/15 09:19:52;;;;;;;10.30;0.70;;;12.90;99.90;;;;;;6241920;22;20281;-91
2021/10/15 09:22:26;;;;;;;0.20;0.20;;;13.00;99.90;;;;;;6267642;22;20224;-92
2021/10/15 09:24:55;;;;;;;1.73;0.90;;;13.10;99.90;;;;;;6240432;22;20223;-91
2021/10/15 09:27:38;;;;;;;2.57;0.40;;;13.20;99.90;;;;;;6239519;22;20156;-91
2021/10/15 09:30:06;;;;;;;0.30;0.30;;;13.30;99.90;;;;;;6242460;22;20442;-92
2021/10/15 09:32:35;;;;;;;0.60;0.60;;;13.30;99.90;;;;;;6241460;22;20184;-88
2021/10/15 09:35:03;;;;;;;0.73;0.60;;;13.30;99.90;;;;;;6240562;22;20279;-91
2021/10/15 09:37:31;;;;;;;1.77;0.97;;;13.10;99.90;;;;;;6216010;22;20978;-91
2021/10/15 09:40:05;;;;;;;0.43;0.43;;;13.10;99.90;;;;;;6268837;22;20193;-94
2021/10/15 09:42:33;;;;;;;0.40;0.40;;;13.20;99.90;;;;;;6241154;22;20192;-90
2021/10/15 09:45:21;;;;;;;1.07;0.67;;;13.20;99.90;;;;;;6268100;22;20180;-92
2021/10/15 09:47:52;;;;;;;0.23;0.20;;;13.10;99.90;;;;;;6267710;22;20189;-90
2021/10/15 09:50:24;;;;;;;1.10;0.37;;;13.10;99.90;;;;;;6267404;22;20192;-95
2021/10/15 09:52:54;;;;;;;3.13;0.33;;;13.10;99.90;;;;;;6241849;22;20215;-93
2021/10/15 09:55:31;;;;;;;0.93;0.60;;;13.20;99.90;;;;;;6241834;22;20195;-92
2021/10/15 09:58:19;;;;;;;3.30;0.67;;;13.30;99.90;;;;;;6239692;22;20288;-91
2021/10/15 10:00:50;;;;;;;0.53;0.27;;;13.30;99.90;;;;;;6266487;22;20207;-89
2021/10/15 10:03:19;;;;;;;2.30;0.77;;;13.20;99.90;;;;;;6239685;22;20196;-90
2021/10/15 10:05:44;;;;;;;1.90;0.60;;;13.20;99.90;;;;;;6267189;22;20179;-90
2021/10/15 10:08:11;;;;;;;0.30;0.30;;;13.20;99.90;;;;;;6240218;22;20192;-91
2021/10/15 10:10:38;;;;;;;0.10;0.10;;;13.20;99.90;;;;;;6215133;22;20197;-89
2021/10/15 10:13:06;;;;;;;2.73;1.20;;;13.30;99.90;;;;;;6214880;22;20193;-92
2021/10/15 10:15:37;;;;;;;4.53;0.87;;;13.50;99.90;;;;;;6190653;22;20205;-89
2021/10/15 10:18:27;;;;;;;4.07;1.13;;;13.70;99.90;;;;;;6267510;22;20141;-90
2021/10/15 10:20:54;;;;;;;1.00;1.00;;;14.10;99.90;;;;;;6240367;22;20176;-90
2021/10/15 10:23:29;;;;;;;1.00;0.63;;;13.70;99.90;;;;;;6239996;22;20200;-92
2021/10/15 10:25:59;;;;;;;0.83;0.70;;;14.00;99.90;;;;;;6267404;22;20211;-93
2021/10/15 10:28:27;;;;;;;4.67;1.27;;;14.40;99.90;;;;;;6215588;22;20216;-91
2021/10/15 10:30:56;;;;;;;1.40;1.13;;;14.70;99.90;;;;;;6215612;22;20207;-92
2021/10/15 10:33:23;;;;;;;1.00;0.60;;;14.80;99.90;;;;;;6267271;22;20271;-94
2021/10/15 10:35:50;;;;;;;2.83;0.70;;;14.60;99.90;;;;;;6268484;22;20188;-94
2021/10/15 10:38:19;;;;;;;2.70;0.50;;;14.80;99.90;;;;;;6214877;22;20202;-94
2021/10/15 10:41:00;;;;;;;6.93;0.67;;;15.10;99.90;;;;;;6241085;22;20674;-93
2021/10/15 10:43:35;;;;;;;3.77;1.23;;;14.80;99.90;;;;;;6240363;22;20276;-93
2021/10/15 10:46:17;;;;;;;6.67;0.57;;;14.90;99.90;;;;;;6267748;22;20203;-92
2021/10/15 10:49:11;;;;;;;2.60;1.57;;;15.00;99.90;;;;;;6267781;22;20542;-94
2021/10/15 10:51:37;;;;;;;1.63;0.87;;;15.10;99.90;;;;;;6266894;22;20196;-93
2021/10/15 10:54:03;;;;;;;4.20;1.03;;;15.00;99.90;;;;;;6241011;22;20252;-93
2021/10/15 10:56:38;;;;;;;2.03;0.57;;;15.00;99.90;;;;;;6239620;22;20236;-94
2021/10/15 10:59:16;;;;;;;0.30;0.30;;;14.40;99.90;;;;;;6266749;22;20883;-93
2021/10/15 11:02:13;;;;;;;1.10;0.97;;;14.70;99.90;;;;;;6269094;22;20708;-92
2021/10/15 11:04:42;;;;;;;4.73;0.93;;;14.90;99.90;;;;;;6208420;23;20214;-92
2021/10/15 11:07:17;;;;;;;1.43;0.30;;;14.80;99.90;;;;;;6207809;23;20307;-91
2021/10/15 11:09:44;;;;;;;0.70;0.60;;;14.90;99.90;;;;;;6207097;23;20205;-93
2021/10/15 11:12:43;;;;;;;0.83;0.40;;;15.10;99.90;;;;;;6208534;23;20464;-92
2021/10/15 11:15:10;;;;;;;3.83;1.03;;;15.10;99.90;;;;;;6201216;23;20154;-91
2021/10/15 11:17:47;;;;;;;1.60;1.40;;;15.20;99.90;;;;;;6215296;23;20248;-92
2021/10/15 11:20:24;;;;;;;5.77;1.57;;;15.20;99.90;;;;;;6206620;23;20676;-91
2021/10/15 11:23:06;;;;;;;1.90;0.77;;;14.90;99.90;;;;;;6207796;23;20292;-93
2021/10/15 11:25:45;;;;;;;0.80;0.80;;;15.20;99.90;;;;;;6208154;23;20202;-91
2021/10/15 11:28:13;;;;;;;2.93;1.20;;;15.20;99.90;;;;;;6207577;23;20253;-93
2021/10/15 11:30:47;;;;;;;1.07;0.53;;;15.50;99.90;;;;;;6206814;23;20205;-90
2021/10/15 11:33:16;;;;;;;2.27;0.93;;;15.80;99.90;;;;;;6207275;23;20224;-91
2021/10/15 11:35:44;;;;;;;5.33;1.07;;;15.70;99.90;;;;;;6208938;23;20157;-91
2021/10/15 11:38:19;;;;;;;7.50;0.70;;;15.00;99.90;;;;;;6208004;23;20193;-89
2021/10/15 11:40:59;;;;;;;0.50;0.50;;;14.80;99.90;;;;;;6206583;23;20225;-91
2021/10/15 11:43:37;;;;;;;3.50;0.30;;;15.00;99.90;;;;;;6205932;23;20272;-90
2021/10/15 11:46:09;;;;;;;4.27;1.27;;;14.30;99.90;;;;;;6207172;23;20531;-91
2021/10/15 11:48:41;;;;;;;2.93;0.70;;;13.80;99.90;;;;;;6208349;23;20201;-92
2021/10/15 11:51:10;;;;;;;14.30;0.63;;;13.40;99.90;;;;;;6207401;23;20978;-91
2021/10/15 11:53:40;;;;;;;0.47;0.30;;;13.20;99.90;;;;;;6206573;23;20238;-91
2021/10/15 11:56:17;;;;;;;1.90;0.70;;;13.10;99.90;;;;;;6206933;23;20213;-91
2021/10/15 11:58:48;;;;;;;7.43;0.43;;;13.00;99.90;;;;;;6205097;23;20199;-89
2021/10/15 12:01:19;;;;;;;2.47;0.87;;;13.90;99.90;;;;;;6206034;23;20194;-90
2021/10/15 12:04:01;;;;;;;0.20;0.20;;;14.50;99.90;;;;;;6201662;23;20213;-91
2021/10/15 12:06:53;;;;;;;4.67;0.70;;;14.40;99.90;;;;;;6236929;22;20299;-90
2021/10/15 12:09:21;;;;;;;3.27;1.17;;;14.00;99.90;;;;;;6231168;22;20215;-89
2021/10/15 12:11:48;;;;;;;4.97;0.80;;;13.90;99.90;;;;;;6238172;22;20553;-92
2021/10/15 12:14:36;;;;;;;8.13;1.77;;;14.00;99.90;;;;;;6236342;22;20205;-91
2021/10/15 12:17:04;;;;;;;0.70;0.70;;;14.10;99.90;;;;;;6235796;22;20209;-92
2021/10/15 12:19:32;;;;;;;0.40;0.40;;;13.90;99.90;;;;;;6235962;22;20189;-90
2021/10/15 12:21:59;;;;;;;4.50;0.87;;;13.90;99.90;;;;;;6236387;22;20246;-91
2021/10/15 12:24:30;;;;;;;5.93;1.23;;;13.80;99.90;;;;;;6236792;22;20646;-92
2021/10/15 12:27:17;;;;;;;3.03;0.47;;;13.70;99.90;;;;;;6234136;23;20646;-91
2021/10/15 12:29:47;;;;;;;2.67;0.63;;;13.60;99.90;;;;;;6235356;22;20174;-91
2021/10/15 12:32:13;;;;;;;7.23;1.67;;;13.60;99.90;;;;;;6233979;22;20193;-91
2021/10/15 12:34:57;;;;;;;4.70;1.33;;;13.50;99.90;;;;;;6235702;22;20197;-88
2021/10/15 12:37:42;;;;;;;6.63;0.67;;;13.50;99.90;;;;;;6237272;22;20213;-91
2021/10/15 12:40:39;;;;;;;0.73;0.57;;;13.40;99.90;;;;;;6235664;22;20197;-90
2021/10/15 12:43:07;;;;;;;0.20;0.20;;;13.50;99.90;;;;;;6237488;22;20223;-88
2021/10/15 12:45:49;;;;;;;2.97;0.67;;;13.50;99.90;;;;;;6237417;22;20189;-92
2021/10/15 12:48:21;;;;;;;1.33;0.43;;;13.50;99.90;;;;;;6237051;22;20227;-91
2021/10/15 12:51:02;;;;;;;0.27;0.27;;;13.40;99.90;;;;;;6236749;23;20153;-91
2021/10/15 12:53:36;;;;;;;1.50;0.43;;;13.30;99.90;;;;;;6235609;22;20223;-90
2021/10/15 12:56:02;;;;;;;5.00;1.30;;;13.50;99.90;;;;;;6236619;22;20208;-91
2021/10/15 12:58:30;;;;;;;0.60;0.60;;;14.00;99.90;;;;;;6235902;22;20224;-87
2021/10/15 13:01:02;;;;;;;5.00;0.57;;;14.20;99.90;;;;;;6235531;22;20204;-91
2021/10/15 13:03:29;;;;;;;0.73;0.73;;;14.30;99.90;;;;;;6235777;22;20209;-87
2021/10/15 13:05:57;;;;;;;5.73;0.70;;;14.30;99.90;;;;;;6237302;22;20482;-90
2021/10/15 13:08:24;;;;;;;0.90;0.60;;;14.40;99.90;;;;;;6233663;22;20193;-91